西安 の空港の天気 - METARとTAF

西安咸陽国際空港 ( ZLXY / XIY ) - 中国 陝西省西安市
飛行場実況気象(Metar)
観測時間10/16 15:00 CST (10/16 07:00 UTC)
風向・風速南南東 2m/s
視程7000m
天気現象
全天の4割程度の雲 雲底高度 910m
気温16℃
湿度68%
気圧1026hPa
METARZLXY 160700Z 16002MPS 120V190 7000 SCT030 16/10 Q1026 NOSIG
過去の天気等 Google飛行場航空写真 Wunderground天気予報

過去48時間のMETAR

飛行場予報(TAF)
発表時間: 10/16 11:03 CST (10/16 03:03 UTC)
予報対象時間: 16日14時 CST ~ 17日14時 CST
風向・風速南南西 3m/s
視程3000m
天気現象もや
なし
TAF ZLXY 160303Z 1606/1706 21003MPS 3000 BR NSC TX18/1608Z TN07/1622Z